createdAt,value
2023-04-03T00:00:47.018Z,101582.14
2023-04-03T00:03:23.289Z,101585.08
2023-04-03T00:05:56.144Z,101581.93
2023-04-03T00:08:28.232Z,101586.86
2023-04-03T00:10:59.060Z,101591.85
2023-04-03T00:13:31.949Z,101591.14
2023-04-03T00:16:04.621Z,101592.08
2023-04-03T00:18:35.303Z,101591.60
2023-04-03T00:21:08.312Z,101592.15
2023-04-03T00:23:40.200Z,101590.46
2023-04-03T00:26:12.668Z,101592.41
2023-04-03T00:28:44.927Z,101594.05
2023-04-03T00:31:19.120Z,101591.92
2023-04-03T00:33:51.073Z,101595.23
2023-04-03T00:36:23.151Z,101594.84
2023-04-03T00:38:55.506Z,101592.11
2023-04-03T00:41:27.491Z,101591.64
2023-04-03T00:43:59.489Z,101591.69
2023-04-03T00:46:31.521Z,101590.48
2023-04-03T00:49:03.871Z,101594.29
2023-04-03T00:51:36.211Z,101595.61
2023-04-03T00:54:09.915Z,101593.64
2023-04-03T00:56:42.515Z,101591.71
2023-04-03T00:59:18.848Z,101590.48
2023-04-03T01:01:51.916Z,101597.55
2023-04-03T01:04:32.999Z,101595.16
2023-04-03T01:07:09.009Z,101588.96
2023-04-03T01:09:41.587Z,101600.38
2023-04-03T01:12:19.248Z,101599.40
2023-04-03T01:14:54.067Z,101601.30
2023-04-03T01:17:35.768Z,101604.23
2023-04-03T01:20:34.189Z,101605.00
2023-04-03T01:23:24.717Z,101602.30
2023-04-03T01:25:58.358Z,101607.31
2023-04-03T01:28:33.597Z,101606.16
2023-04-03T01:31:14.485Z,101608.02
2023-04-03T01:33:47.046Z,101613.02
2023-04-03T01:36:23.172Z,101611.97
2023-04-03T01:38:56.833Z,101612.09
2023-04-03T01:41:29.947Z,101615.40
2023-04-03T01:44:07.506Z,101618.11
2023-04-03T01:46:39.726Z,101618.16
2023-04-03T01:49:12.653Z,101622.89
2023-04-03T01:51:45.081Z,101623.02
2023-04-03T01:54:17.394Z,101627.20
2023-04-03T01:56:48.033Z,101629.30
2023-04-03T01:59:21.079Z,101636.86
2023-04-03T02:01:53.229Z,101629.52
2023-04-03T02:04:25.556Z,101629.84
2023-04-03T02:06:57.889Z,101640.55
2023-04-03T02:09:30.988Z,101639.05
2023-04-03T02:12:02.827Z,101642.13
2023-04-03T02:14:35.880Z,101638.81
2023-04-03T02:17:09.578Z,101641.75
2023-04-03T02:19:41.988Z,101641.65
2023-04-03T02:22:13.800Z,101644.89
2023-04-03T02:24:45.666Z,101641.56
2023-04-03T02:27:17.480Z,101637.58
2023-04-03T02:29:49.226Z,101644.34
2023-04-03T02:32:21.130Z,101643.80
2023-04-03T02:34:53.241Z,101645.58
2023-04-03T02:37:25.501Z,101651.38
2023-04-03T02:39:58.370Z,101655.50
2023-04-03T02:42:30.281Z,101654.25
2023-04-03T02:45:03.126Z,101654.52
2023-04-03T02:47:33.458Z,101658.70
2023-04-03T02:50:05.561Z,101663.27
2023-04-03T02:52:37.959Z,101663.32
2023-04-03T02:55:15.428Z,101659.79
2023-04-03T02:57:47.490Z,101664.14
2023-04-03T03:00:19.292Z,101661.56
2023-04-03T03:02:52.154Z,101667.98
2023-04-03T03:05:22.801Z,101671.85
2023-04-03T03:07:54.978Z,101671.63
2023-04-03T03:10:26.955Z,101674.60
2023-04-03T03:12:58.897Z,101673.17
2023-04-03T03:15:30.729Z,101673.86
2023-04-03T03:18:02.606Z,101680.60
2023-04-03T03:20:35.240Z,101678.70
2023-04-03T03:23:07.414Z,101681.87
2023-04-03T03:25:42.856Z,101682.80
2023-04-03T03:28:15.045Z,101684.56
2023-04-03T03:30:46.871Z,101687.36
2023-04-03T03:33:18.188Z,101687.45
2023-04-03T03:35:50.082Z,101686.91
2023-04-03T03:38:21.974Z,101684.92
2023-04-03T03:40:54.887Z,101690.82
2023-04-03T03:43:27.269Z,101690.45
2023-04-03T03:45:59.580Z,101687.69
2023-04-03T03:48:32.655Z,101693.48
2023-04-03T03:51:04.552Z,101691.09
2023-04-03T03:53:39.681Z,101692.75
2023-04-03T03:56:14.193Z,101693.88
2023-04-03T03:58:46.187Z,101699.77
2023-04-03T04:01:18.919Z,101698.95
2023-04-03T04:03:55.051Z,101697.70
2023-04-03T04:06:29.568Z,101698.80
2023-04-03T04:09:03.971Z,101695.45
2023-04-03T04:11:36.241Z,101695.94
2023-04-03T04:14:08.826Z,101695.08
2023-04-03T04:16:40.979Z,101700.30
2023-04-03T04:19:17.423Z,101702.04
2023-04-03T04:21:49.682Z,101702.35
2023-04-03T04:24:23.764Z,101706.34
2023-04-03T04:26:56.849Z,101707.69
2023-04-03T04:29:27.642Z,101707.84
2023-04-03T04:31:59.453Z,101709.92
2023-04-03T04:34:31.700Z,101712.36
2023-04-03T04:37:04.201Z,101708.58
2023-04-03T04:39:37.581Z,101711.02
2023-04-03T04:42:14.656Z,101711.85
2023-04-03T04:44:49.537Z,101715.20
2023-04-03T04:47:21.831Z,101723.61
2023-04-03T04:49:54.685Z,101722.45
2023-04-03T04:52:27.593Z,101723.98
2023-04-03T04:54:59.860Z,101716.42
2023-04-03T04:57:30.673Z,101725.84
2023-04-03T05:00:04.237Z,101730.95
2023-04-03T05:02:36.500Z,101732.21
2023-04-03T05:05:10.657Z,101733.47
2023-04-03T05:07:43.126Z,101733.73
2023-04-03T05:10:15.093Z,101736.32
2023-04-03T05:12:46.285Z,101742.54
2023-04-03T05:15:18.738Z,101740.58
2023-04-03T05:17:51.983Z,101742.73
2023-04-03T05:20:24.005Z,101742.95
2023-04-03T05:22:56.262Z,101743.77
2023-04-03T05:25:28.270Z,101742.35
2023-04-03T05:28:00.823Z,101742.08
2023-04-03T05:30:32.765Z,101743.56
2023-04-03T05:33:06.994Z,101746.01
2023-04-03T05:35:46.124Z,101747.09
2023-04-03T05:38:22.650Z,101748.70
2023-04-03T05:40:56.235Z,101751.35
2023-04-03T05:43:28.081Z,101755.56
2023-04-03T05:46:00.316Z,101755.85
2023-04-03T05:48:31.294Z,101758.61
2023-04-03T05:51:03.472Z,101753.33
2023-04-03T05:53:39.132Z,101752.64
2023-04-03T05:56:12.003Z,101759.33
2023-04-03T05:58:44.998Z,101759.77
2023-04-03T06:01:17.365Z,101761.36
2023-04-03T06:03:50.233Z,101758.77
2023-04-03T06:06:21.068Z,101761.40
2023-04-03T06:08:53.073Z,101755.57
2023-04-03T06:11:24.956Z,101762.23
2023-04-03T06:13:57.269Z,101755.91
2023-04-03T06:16:29.920Z,101764.30
2023-04-03T06:19:01.059Z,101771.52
2023-04-03T06:21:33.776Z,101773.36
2023-04-03T06:24:06.738Z,101773.30
2023-04-03T06:26:39.011Z,101769.42
2023-04-03T06:29:11.272Z,101775.20
2023-04-03T06:31:45.335Z,101774.36
2023-04-03T06:34:17.840Z,101777.90
2023-04-03T06:36:51.671Z,101773.36
2023-04-03T06:39:24.605Z,101776.73
2023-04-03T06:41:56.685Z,101777.41
2023-04-03T06:44:37.087Z,101779.08
2023-04-03T06:47:09.600Z,101775.48
2023-04-03T06:49:42.349Z,101776.89
2023-04-03T06:52:14.371Z,101780.95
2023-04-03T06:54:48.358Z,101788.36
2023-04-03T06:57:20.543Z,101788.09
2023-04-03T06:59:52.477Z,101789.40
2023-04-03T07:02:24.477Z,101793.26
2023-04-03T07:04:57.136Z,101791.37
2023-04-03T07:07:29.058Z,101803.59
2023-04-03T07:10:01.215Z,101804.46
2023-04-03T07:12:33.264Z,101805.39
2023-04-03T07:15:06.049Z,101810.73
2023-04-03T07:17:37.983Z,101815.10
2023-04-03T07:20:12.588Z,101812.60
2023-04-03T07:22:44.388Z,101815.67
2023-04-03T07:25:17.310Z,101821.40
2023-04-03T07:27:50.078Z,101820.85
2023-04-03T07:30:22.246Z,101819.81
2023-04-03T07:32:54.082Z,101823.38
2023-04-03T07:35:25.969Z,101822.09
2023-04-03T07:37:57.753Z,101825.05
2023-04-03T07:40:30.009Z,101823.73
2023-04-03T07:43:03.309Z,101827.88
2023-04-03T07:45:36.935Z,101827.14
2023-04-03T07:48:09.427Z,101831.56
2023-04-03T07:50:43.812Z,101830.09
2023-04-03T07:53:15.777Z,101825.89
2023-04-03T07:55:52.740Z,101830.89
2023-04-03T07:58:24.827Z,101833.48
2023-04-03T08:00:57.233Z,101839.42
2023-04-03T08:03:28.290Z,101837.64
2023-04-03T08:06:06.165Z,101838.23
2023-04-03T08:08:39.236Z,101839.17
2023-04-03T08:11:11.942Z,101843.11
2023-04-03T08:13:42.522Z,101846.89
2023-04-03T08:16:18.886Z,101846.84
2023-04-03T08:18:51.215Z,101847.28
2023-04-03T08:21:23.140Z,101852.77
2023-04-03T08:23:54.933Z,101853.49
2023-04-03T08:26:27.766Z,101852.13
2023-04-03T08:28:59.752Z,101854.11
2023-04-03T08:31:32.111Z,101850.89
2023-04-03T08:34:03.886Z,101852.57
2023-04-03T08:36:36.298Z,101855.07
2023-04-03T08:39:08.871Z,101847.05
2023-04-03T08:41:43.495Z,101853.17
2023-04-03T08:44:28.602Z,101851.02
2023-04-03T08:47:20.109Z,101852.38
2023-04-03T08:49:54.140Z,101851.92
2023-04-03T08:52:36.464Z,101849.88
2023-04-03T08:55:17.278Z,101852.96
2023-04-03T08:57:52.929Z,101855.90
2023-04-03T09:00:29.622Z,101851.52
2023-04-03T09:03:01.957Z,101852.86
2023-04-03T09:05:46.382Z,101852.02
2023-04-03T09:08:27.142Z,101856.78
2023-04-03T09:11:11.190Z,101856.26
2023-04-03T09:13:51.923Z,101851.20
2023-04-03T09:16:35.969Z,101854.86
2023-04-03T09:19:18.321Z,101846.84
2023-04-03T09:21:50.232Z,101850.33
2023-04-03T09:24:25.363Z,101848.27
2023-04-03T09:27:03.320Z,101847.94
2023-04-03T09:29:41.120Z,101848.95
2023-04-03T09:32:24.366Z,101846.39
2023-04-03T09:34:59.753Z,101848.77
2023-04-03T09:37:44.823Z,101849.14
2023-04-03T09:40:36.728Z,101850.33
2023-04-03T09:43:24.205Z,101849.86
2023-04-03T09:45:58.293Z,101847.83
2023-04-03T09:48:31.073Z,101854.33
2023-04-03T09:51:05.239Z,101847.92
2023-04-03T09:53:41.081Z,101844.46
2023-04-03T09:56:24.499Z,101850.02
2023-04-03T09:59:15.998Z,101847.98
2023-04-03T10:02:01.823Z,101846.02
2023-04-03T10:04:43.231Z,101841.45
2023-04-03T10:07:36.814Z,101839.02
2023-04-03T10:10:23.869Z,101842.35
2023-04-03T10:13:09.367Z,101840.91
2023-04-03T10:15:47.727Z,101837.62
2023-04-03T10:18:33.671Z,101838.94
2023-04-03T10:21:24.718Z,101839.95
2023-04-03T10:24:08.409Z,101839.35
2023-04-03T10:26:46.796Z,101837.27
2023-04-03T10:29:44.393Z,101841.77
2023-04-03T10:32:40.225Z,101839.07
2023-04-03T10:35:24.604Z,101834.52
2023-04-03T10:38:06.647Z,101828.83
2023-04-03T10:40:49.929Z,101823.62
2023-04-03T10:43:32.705Z,101821.04
2023-04-03T10:46:12.528Z,101822.96
2023-04-03T10:49:00.172Z,101825.64
2023-04-03T10:51:42.817Z,101827.98
2023-04-03T10:54:21.212Z,101825.80
2023-04-03T10:57:08.704Z,101820.21
2023-04-03T10:59:46.924Z,101826.06
2023-04-03T11:02:25.131Z,101826.29
2023-04-03T11:05:03.540Z,101824.74
2023-04-03T11:07:43.096Z,101818.30
2023-04-03T11:10:20.541Z,101817.67
2023-04-03T11:12:59.952Z,101825.15
2023-04-03T11:15:34.268Z,101828.52
2023-04-03T11:18:12.426Z,101815.33
2023-04-03T11:20:52.251Z,101817.48
2023-04-03T11:23:28.366Z,101818.21
2023-04-03T11:26:09.917Z,101808.70
2023-04-03T11:28:42.764Z,101808.50
2023-04-03T11:31:32.060Z,101804.13
2023-04-03T11:34:18.986Z,101810.70
2023-04-03T11:36:56.223Z,101801.64
2023-04-03T11:39:31.632Z,101798.53
2023-04-03T11:45:32.520Z,101788.34
2023-04-03T11:48:20.904Z,101794.06
2023-04-03T11:50:57.059Z,101793.59
2023-04-03T11:53:35.663Z,101789.08
2023-04-03T11:56:33.294Z,101790.09
2023-04-03T11:59:28.514Z,101783.81
2023-04-03T12:02:01.473Z,101776.20
2023-04-03T12:04:33.185Z,101775.77
2023-04-03T12:07:20.935Z,101766.99
2023-04-03T12:10:03.837Z,101773.16
2023-04-03T12:12:39.170Z,101769.91
2023-04-03T12:15:52.308Z,101775.64
2023-04-03T12:18:44.882Z,101774.91
2023-04-03T12:21:19.476Z,101770.30
2023-04-03T12:24:26.297Z,101765.41
2023-04-03T12:27:14.426Z,101762.09
2023-04-03T12:29:55.249Z,101755.80
2023-04-03T12:33:05.779Z,101757.18
2023-04-03T12:35:46.179Z,101761.92
2023-04-03T12:38:39.911Z,101763.52
2023-04-03T12:41:30.241Z,101764.89
2023-04-03T12:44:22.510Z,101761.89
2023-04-03T12:46:56.132Z,101762.52
2023-04-03T12:49:39.014Z,101764.14
2023-04-03T12:52:32.767Z,101770.92
2023-04-03T12:55:11.110Z,101765.06
2023-04-03T12:57:42.925Z,101766.74
2023-04-03T13:00:34.462Z,101761.45
2023-04-03T13:03:08.276Z,101755.56
2023-04-03T13:05:40.478Z,101758.17
2023-04-03T13:08:16.833Z,101757.13
2023-04-03T13:10:55.867Z,101762.84
2023-04-03T13:13:27.722Z,101758.13
2023-04-03T13:16:00.775Z,101759.33
2023-04-03T13:18:35.458Z,101752.66
2023-04-03T13:21:18.157Z,101747.46
2023-04-03T13:24:00.489Z,101745.06
2023-04-03T13:26:40.041Z,101747.05
2023-04-03T13:29:30.878Z,101749.80
2023-04-03T13:32:06.646Z,101755.52
2023-04-03T13:34:45.847Z,101759.19
2023-04-03T13:37:28.684Z,101760.14
2023-04-03T13:40:12.755Z,101761.79
2023-04-03T13:42:45.110Z,101757.18
2023-04-03T13:45:29.164Z,101757.49
2023-04-03T13:48:23.547Z,101758.48
2023-04-03T13:51:03.766Z,101758.30
2023-04-03T13:53:44.264Z,101752.71
2023-04-03T13:56:23.851Z,101750.95
2023-04-03T13:59:22.498Z,101747.31
2023-04-03T14:01:57.631Z,101744.32
2023-04-03T14:04:33.217Z,101738.79
2023-04-03T14:07:05.772Z,101744.93
2023-04-03T14:09:37.777Z,101746.16
2023-04-03T14:12:30.045Z,101745.29
2023-04-03T14:15:05.870Z,101743.67
2023-04-03T14:17:37.817Z,101742.98
2023-04-03T14:20:16.448Z,101743.28
2023-04-03T14:22:49.620Z,101742.02
2023-04-03T14:25:24.436Z,101747.13
2023-04-03T14:27:56.730Z,101746.13
2023-04-03T14:30:32.055Z,101745.98
2023-04-03T14:33:04.547Z,101746.30
2023-04-03T14:35:36.521Z,101744.61
2023-04-03T14:38:22.778Z,101741.86
2023-04-03T14:40:58.953Z,101744.27
2023-04-03T14:43:35.602Z,101744.73
2023-04-03T14:46:13.841Z,101742.39
2023-04-03T14:48:46.814Z,101740.45
2023-04-03T14:51:19.338Z,101736.76
2023-04-03T14:53:52.485Z,101738.17
2023-04-03T14:56:27.686Z,101741.52
2023-04-03T14:59:04.100Z,101743.16
2023-04-03T15:01:36.764Z,101742.52
2023-04-03T15:04:14.277Z,101746.48
2023-04-03T15:06:46.838Z,101741.85
2023-04-03T15:09:25.062Z,101739.20
2023-04-03T15:11:57.544Z,101740.80
2023-04-03T15:14:36.618Z,101744.47
2023-04-03T15:17:16.868Z,101736.34
2023-04-03T15:19:49.232Z,101734.52
2023-04-03T15:22:22.072Z,101729.54
2023-04-03T15:24:52.433Z,101729.31
2023-04-03T15:27:28.104Z,101732.94
2023-04-03T15:30:16.527Z,101725.48
2023-04-03T15:32:59.265Z,101729.64
2023-04-03T15:35:31.348Z,101735.98
2023-04-03T15:38:32.706Z,101738.45
2023-04-03T15:41:06.997Z,101734.79
2023-04-03T15:44:10.120Z,101732.09
2023-04-03T15:46:56.278Z,101732.73
2023-04-03T15:50:01.783Z,101731.05
2023-04-03T15:52:55.197Z,101739.65
2023-04-03T15:55:28.987Z,101735.37
2023-04-03T15:58:02.289Z,101736.84
2023-04-03T16:00:34.970Z,101736.06
2023-04-03T16:03:13.447Z,101735.64
2023-04-03T16:05:46.431Z,101734.02
2023-04-03T16:08:18.858Z,101736.58
2023-04-03T16:10:51.039Z,101737.83
2023-04-03T16:13:23.496Z,101739.79
2023-04-03T16:15:56.813Z,101738.89
2023-04-03T16:18:29.280Z,101738.75
2023-04-03T16:21:01.500Z,101741.96
2023-04-03T16:23:33.667Z,101738.98
2023-04-03T16:26:05.956Z,101740.02
2023-04-03T16:28:38.684Z,101741.77
2023-04-03T16:31:11.656Z,101739.42
2023-04-03T16:33:43.969Z,101745.07
2023-04-03T16:36:15.900Z,101747.66
2023-04-03T16:38:48.544Z,101746.84
2023-04-03T16:41:20.906Z,101744.34
2023-04-03T16:43:52.967Z,101745.70
2023-04-03T16:46:24.934Z,101745.38
2023-04-03T16:48:57.191Z,101743.44
2023-04-03T16:51:29.453Z,101744.73
2023-04-03T16:54:01.762Z,101742.52
2023-04-03T16:56:33.020Z,101740.11
2023-04-03T16:59:05.895Z,101741.45
2023-04-03T17:01:38.032Z,101741.01
2023-04-03T17:04:13.722Z,101745.67
2023-04-03T17:06:46.617Z,101745.98
2023-04-03T17:09:19.237Z,101747.38
2023-04-03T17:11:51.060Z,101749.18
2023-04-03T17:14:24.131Z,101752.46
2023-04-03T17:16:56.188Z,101753.80
2023-04-03T17:19:28.064Z,101751.97
2023-04-03T17:22:00.866Z,101753.93
2023-04-03T17:24:33.290Z,101755.35
2023-04-03T17:27:06.612Z,101757.27
2023-04-03T17:29:39.013Z,101756.98
2023-04-03T17:32:20.681Z,101757.02
2023-04-03T17:35:04.486Z,101759.29
2023-04-03T17:37:37.915Z,101759.94
2023-04-03T17:40:18.103Z,101755.27
2023-04-03T17:42:50.370Z,101761.71
2023-04-03T17:45:24.331Z,101760.70
2023-04-03T17:47:58.453Z,101755.05
2023-04-03T17:50:32.562Z,101763.14
2023-04-03T17:53:05.471Z,101764.11
2023-04-03T17:55:40.675Z,101763.42
2023-04-03T17:58:13.332Z,101763.31
2023-04-03T18:00:45.742Z,101761.13
2023-04-03T18:03:19.175Z,101767.52
2023-04-03T18:05:54.996Z,101764.09
2023-04-03T18:08:28.387Z,101769.18
2023-04-03T18:11:01.407Z,101767.84
2023-04-03T18:13:33.631Z,101766.48
2023-04-03T18:16:07.804Z,101767.51
2023-04-03T18:18:42.866Z,101770.43
2023-04-03T18:21:16.586Z,101770.35
2023-04-03T18:23:52.743Z,101775.40
2023-04-03T18:26:28.966Z,101776.32
2023-04-03T18:29:05.540Z,101775.63
2023-04-03T18:31:40.950Z,101773.44
2023-04-03T18:34:12.893Z,101777.08
2023-04-03T18:36:46.109Z,101777.27
2023-04-03T18:39:18.464Z,101780.91
2023-04-03T18:41:51.176Z,101777.21
2023-04-03T18:44:27.122Z,101777.52
2023-04-03T18:47:00.586Z,101780.38
2023-04-03T18:49:36.267Z,101778.15
2023-04-03T18:52:08.327Z,101780.95
2023-04-03T18:54:41.033Z,101776.98
2023-04-03T18:57:11.620Z,101778.08
2023-04-03T18:59:43.815Z,101776.70
2023-04-03T19:02:17.173Z,101779.23
2023-04-03T19:04:50.176Z,101771.78
2023-04-03T19:07:22.436Z,101773.60
2023-04-03T19:09:55.822Z,101770.97
2023-04-03T19:12:28.096Z,101767.27
2023-04-03T19:15:00.204Z,101772.23
2023-04-03T19:17:33.352Z,101770.18
2023-04-03T19:20:06.211Z,101775.78
2023-04-03T19:22:40.930Z,101777.16
2023-04-03T19:25:14.342Z,101775.45
2023-04-03T19:27:47.361Z,101774.55
2023-04-03T19:30:19.474Z,101777.63
2023-04-03T19:32:52.294Z,101777.93
2023-04-03T19:35:24.537Z,101781.43
2023-04-03T19:37:56.359Z,101779.90
2023-04-03T19:40:29.581Z,101779.48
2023-04-03T19:43:01.454Z,101780.42
2023-04-03T19:45:34.996Z,101778.16
2023-04-03T19:48:08.033Z,101783.13
2023-04-03T19:50:38.555Z,101778.95
2023-04-03T19:53:11.911Z,101784.33
2023-04-03T19:55:46.513Z,101786.55
2023-04-03T19:58:18.734Z,101787.31
2023-04-03T20:00:51.190Z,101782.63
2023-04-03T20:03:24.035Z,101787.81
2023-04-03T20:05:57.758Z,101786.21
2023-04-03T20:08:31.282Z,101789.36
2023-04-03T20:11:03.329Z,101785.92
2023-04-03T20:13:36.616Z,101783.60
2023-04-03T20:16:10.199Z,101780.86
2023-04-03T20:18:43.777Z,101782.06
2023-04-03T20:21:15.949Z,101784.03
2023-04-03T20:23:48.314Z,101786.14
2023-04-03T20:26:27.014Z,101785.39
2023-04-03T20:29:02.786Z,101780.20
2023-04-03T20:31:34.914Z,101780.95
2023-04-03T20:34:07.134Z,101785.64
2023-04-03T20:36:39.198Z,101785.10
2023-04-03T20:39:11.348Z,101787.42
2023-04-03T20:41:43.811Z,101783.52
2023-04-03T20:44:18.483Z,101785.42
2023-04-03T20:46:53.424Z,101783.16
2023-04-03T20:49:25.915Z,101777.92
2023-04-03T20:51:58.346Z,101779.77
2023-04-03T20:54:30.587Z,101771.77
2023-04-03T20:57:02.971Z,101780.61
2023-04-03T20:59:35.928Z,101782.98
2023-04-03T21:02:08.440Z,101781.80
2023-04-03T21:04:45.329Z,101784.14
2023-04-03T21:07:53.370Z,101784.62
2023-04-03T21:11:00.788Z,101783.14
2023-04-03T21:14:07.600Z,101777.77
2023-04-03T21:16:38.643Z,101778.02
2023-04-03T21:19:20.673Z,101779.50
2023-04-03T21:21:52.690Z,101778.86
2023-04-03T21:24:24.892Z,101778.40
2023-04-03T21:27:03.637Z,101776.02
2023-04-03T21:29:37.572Z,101778.11
2023-04-03T21:32:09.556Z,101774.31
2023-04-03T21:34:41.522Z,101778.33
2023-04-03T21:37:14.366Z,101777.98
2023-04-03T21:39:47.311Z,101780.54
2023-04-03T21:42:19.157Z,101782.27
2023-04-03T21:44:51.095Z,101779.16
2023-04-03T21:47:26.915Z,101784.48
2023-04-03T21:49:59.550Z,101784.86
2023-04-03T21:52:31.658Z,101793.09
2023-04-03T21:55:03.720Z,101788.77
2023-04-03T21:57:35.788Z,101790.66
2023-04-03T22:00:10.673Z,101789.16
2023-04-03T22:02:43.318Z,101789.36
2023-04-03T22:05:15.577Z,101791.58
2023-04-03T22:07:48.757Z,101789.58
2023-04-03T22:10:21.033Z,101789.82
2023-04-03T22:12:52.830Z,101784.13
2023-04-03T22:15:24.655Z,101787.47
2023-04-03T22:17:56.514Z,101786.29
2023-04-03T22:20:28.723Z,101790.93
2023-04-03T22:23:00.461Z,101784.19
2023-04-03T22:25:32.312Z,101784.45
2023-04-03T22:28:05.603Z,101785.73
2023-04-03T22:30:40.136Z,101792.04
2023-04-03T22:33:13.387Z,101790.30
2023-04-03T22:35:49.575Z,101790.85
2023-04-03T22:38:21.540Z,101790.70
2023-04-03T22:41:00.310Z,101789.56
2023-04-03T22:43:33.589Z,101792.22
2023-04-03T22:46:07.764Z,101789.96
2023-04-03T22:48:42.251Z,101788.65
2023-04-03T22:51:14.705Z,101788.60
2023-04-03T22:53:46.566Z,101791.13
2023-04-03T22:56:17.830Z,101791.08
2023-04-03T22:58:50.145Z,101793.63
2023-04-03T23:01:24.497Z,101792.28
2023-04-03T23:03:56.776Z,101792.35
2023-04-03T23:06:28.677Z,101790.33
2023-04-03T23:09:01.135Z,101784.59
2023-04-03T23:11:33.073Z,101791.48
2023-04-03T23:14:05.518Z,101792.45
2023-04-03T23:16:37.710Z,101792.20
2023-04-03T23:19:09.965Z,101794.47
2023-04-03T23:21:42.030Z,101792.71
2023-04-03T23:24:14.220Z,101788.27
2023-04-03T23:26:45.994Z,101786.00
2023-04-03T23:29:18.347Z,101782.21
2023-04-03T23:31:50.203Z,101780.59
2023-04-03T23:34:22.076Z,101786.34
2023-04-03T23:36:53.992Z,101782.61
2023-04-03T23:39:25.814Z,101780.66
2023-04-03T23:41:59.118Z,101777.73
2023-04-03T23:44:30.982Z,101774.52
2023-04-03T23:47:02.784Z,101777.23
2023-04-03T23:49:34.797Z,101770.03
2023-04-03T23:52:07.519Z,101769.77
2023-04-03T23:54:39.473Z,101765.89
2023-04-03T23:57:11.685Z,101765.89
2023-04-03T23:59:43.474Z,101762.97
